Time;durP1;ratioP1;P1;durP2;ratioP2;P2;SDS_P1;SDS_P2;PMS_P1;PMS_P2;Temp;Humidity;BMP_temperature;BMP_pressure;BME280_temperature;BME280_humidity;BME280_pressure;Samples;Min_cycle;Max_cycle;Signal;HPM_P1;HPM_P2
2021/04/24 00:00:25;;;;;;;13.88;6.80;;;;;;;12.34;50.75;97284.97;5004067;28;20045;-67
2021/04/24 00:02:52;;;;;;;27.38;12.73;;;;;;;12.64;50.35;97342.19;5003924;28;20044;-69
2021/04/24 00:05:22;;;;;;;14.60;7.80;;;;;;;12.90;50.54;97383.81;5003827;28;20041;-68
2021/04/24 00:07:48;;;;;;;13.15;6.88;;;;;;;12.58;50.46;97326.19;5019180;28;20554;-68
2021/04/24 00:10:15;;;;;;;10.77;6.38;;;;;;;12.99;49.91;97403.00;5019203;28;20041;-68
2021/04/24 00:12:42;;;;;;;14.65;6.55;;;;;;;12.55;49.03;97349.97;5022077;28;20036;-69
2021/04/24 00:15:11;;;;;;;11.30;5.53;;;;;;;12.88;48.55;97402.06;5023261;28;20067;-67
2021/04/24 00:17:36;;;;;;;11.48;5.57;;;;;;;12.91;49.43;97413.25;5024249;28;20050;-68
2021/04/24 00:20:05;;;;;;;16.40;6.25;;;;;;;12.91;49.94;97407.69;5023673;28;20033;-68
2021/04/24 00:22:31;;;;;;;17.73;6.95;;;;;;;12.64;49.37;97369.97;5023616;28;20087;-68
2021/04/24 00:24:56;;;;;;;13.60;6.72;;;;;;;12.84;48.29;97410.34;5023684;28;20513;-68
2021/04/24 00:27:22;;;;;;;21.02;6.65;;;;;;;12.03;47.48;97284.13;5023727;28;20048;-68
2021/04/24 00:29:47;;;;;;;11.52;6.20;;;;;;;12.81;47.40;97408.31;5024059;28;20127;-68
2021/04/24 00:32:13;;;;;;;10.93;6.07;;;;;;;12.64;47.55;97392.22;5022959;28;20025;-68
2021/04/24 00:34:38;;;;;;;32.05;14.63;;;;;;;12.03;47.53;97338.84;5023584;28;20044;-67
2021/04/24 00:37:04;;;;;;;13.30;7.97;;;;;;;12.81;48.09;97424.19;5021668;28;20021;-67
2021/04/24 00:39:29;;;;;;;13.57;7.18;;;;;;;12.82;47.82;97432.16;5023416;28;20033;-68
2021/04/24 00:41:54;;;;;;;16.05;6.75;;;;;;;12.67;47.29;97413.69;5022381;28;20029;-67
2021/04/24 00:44:20;;;;;;;16.92;7.15;;;;;;;12.60;48.62;97413.56;5023530;28;20472;-68
2021/04/24 00:46:45;;;;;;;13.68;6.35;;;;;;;12.78;48.97;97419.38;5021086;28;20579;-68
2021/04/24 00:49:11;;;;;;;59.83;25.70;;;;;;;12.78;49.10;97420.19;5023164;28;20058;-67
2021/04/24 00:51:36;;;;;;;224.88;91.65;;;;;;;12.29;49.31;97347.22;5022792;28;20040;-67
2021/04/24 00:54:03;;;;;;;110.35;70.78;;;;;;;12.82;49.12;97421.03;5023521;28;20539;-68
2021/04/24 00:56:29;;;;;;;45.97;38.58;;;;;;;12.75;49.03;97415.41;5023284;28;20037;-67
2021/04/24 00:58:54;;;;;;;25.55;18.35;;;;;;;12.63;48.68;97389.81;5021850;28;20128;-68
2021/04/24 01:01:20;;;;;;;17.38;10.50;;;;;;;12.74;49.22;97413.78;5022810;28;20036;-67
2021/04/24 01:03:46;;;;;;;19.60;13.70;;;;;;;12.87;48.34;97414.34;5023754;28;20043;-67
2021/04/24 01:06:12;;;;;;;14.70;8.90;;;;;;;12.78;48.93;97414.66;5023197;28;20489;-68
2021/04/24 01:08:37;;;;;;;17.20;8.30;;;;;;;12.68;49.10;97403.34;5020953;28;20050;-69
2021/04/24 01:11:02;;;;;;;10.57;6.13;;;;;;;12.69;48.66;97411.34;5002810;28;20030;-68
2021/04/24 01:13:28;;;;;;;9.88;6.30;;;;;;;12.76;49.60;97418.97;5003994;28;20037;-68
2021/04/24 01:15:53;;;;;;;12.25;6.25;;;;;;;12.31;50.12;97350.44;5018422;28;20080;-68
2021/04/24 01:18:19;;;;;;;10.65;6.38;;;;;;;12.69;49.74;97422.47;5003746;28;20121;-67
2021/04/24 01:20:46;;;;;;;7.95;5.63;;;;;;;12.77;49.02;97413.03;5002824;28;20050;-68
2021/04/24 01:23:12;;;;;;;14.68;6.55;;;;;;;12.40;49.54;97359.28;5003425;28;20034;-69
2021/04/24 01:25:39;;;;;;;11.20;6.13;;;;;;;12.35;50.26;97361.56;5005877;28;20052;-69
2021/04/24 01:28:06;;;;;;;11.30;5.72;;;;;;;12.57;50.47;97400.44;5022220;28;20471;-68
2021/04/24 01:30:34;;;;;;;9.98;5.75;;;;;;;12.58;51.39;97404.81;5007334;28;20042;-68
2021/04/24 01:33:00;;;;;;;14.07;6.07;;;;;;;11.75;50.56;97261.50;5007526;28;20038;-69
2021/04/24 01:35:30;;;;;;;13.75;5.78;;;;;;;12.61;50.88;97398.53;5006724;28;20624;-68
2021/04/24 01:37:57;;;;;;;29.27;16.88;;;;;;;12.23;50.57;97342.34;5005149;28;20038;-68
2021/04/24 01:40:23;;;;;;;13.73;6.75;;;;;;;12.66;50.08;97414.84;5004790;28;20030;-68
2021/04/24 01:42:49;;;;;;;11.55;6.68;;;;;;;12.69;50.69;97411.34;5006969;28;20046;-69
2021/04/24 01:45:16;;;;;;;9.73;6.05;;;;;;;12.51;50.31;97410.25;5006470;28;20409;-68
2021/04/24 01:47:43;;;;;;;16.60;7.15;;;;;;;12.64;50.04;97414.44;5007186;28;20443;-68
2021/04/24 01:50:15;;;;;;;11.75;5.97;;;;;;;12.49;50.62;97415.38;5021547;28;20086;-68
2021/04/24 01:52:42;;;;;;;16.38;10.05;;;;;;;12.03;49.63;97361.06;5007126;28;20122;-69
2021/04/24 01:55:17;;;;;;;10.88;6.25;;;;;;;12.27;49.25;97416.22;5006866;28;20487;-69
2021/04/24 01:57:44;;;;;;;11.82;6.00;;;;;;;12.54;49.36;97417.84;5006787;28;20038;-69
2021/04/24 02:00:18;;;;;;;14.15;6.07;;;;;;;12.63;49.14;97418.38;5020979;28;20026;-69
2021/04/24 02:02:43;;;;;;;14.93;7.07;;;;;;;12.52;49.51;97414.63;5006813;28;20103;-70
2021/04/24 02:05:11;;;;;;;13.82;6.68;;;;;;;12.25;49.65;97378.91;5004819;28;20030;-69
2021/04/24 02:07:37;;;;;;;55.33;22.88;;;;;;;12.19;48.61;97398.66;5006284;28;20034;-69
2021/04/24 02:10:13;;;;;;;47.75;22.98;;;;;;;12.40;48.72;97419.59;5020093;28;20030;-69
2021/04/24 02:12:39;;;;;;;23.20;11.10;;;;;;;12.13;48.47;97377.13;5026173;28;20045;-70
2021/04/24 02:15:06;;;;;;;21.00;10.45;;;;;;;12.44;49.27;97414.91;5026030;28;20061;-70
2021/04/24 02:17:32;;;;;;;15.88;7.85;;;;;;;12.55;49.67;97416.66;5024248;28;20041;-70
2021/04/24 02:19:57;;;;;;;15.65;7.85;;;;;;;12.31;49.96;97392.09;5024270;28;20088;-68
2021/04/24 02:22:23;;;;;;;15.02;7.25;;;;;;;12.35;50.13;97423.50;5025695;28;20034;-70
2021/04/24 02:24:54;;;;;;;15.73;7.53;;;;;;;12.56;49.73;97426.63;5025713;28;20029;-70
2021/04/24 02:27:20;;;;;;;14.13;7.30;;;;;;;12.55;49.75;97424.22;5025707;28;20048;-69
2021/04/24 02:29:47;;;;;;;14.70;6.80;;;;;;;12.50;49.66;97424.53;5025960;28;20034;-71
2021/04/24 02:32:15;;;;;;;12.65;6.47;;;;;;;12.43;49.00;97391.88;5024908;28;20083;-70
2021/04/24 02:34:44;;;;;;;11.65;6.47;;;;;;;11.59;48.21;97312.72;5025574;28;20071;-69
2021/04/24 02:37:10;;;;;;;14.02;7.05;;;;;;;12.13;49.10;97425.13;5023047;28;20079;-69
2021/04/24 02:39:38;;;;;;;9.23;6.70;;;;;;;12.29;49.55;97430.56;5025729;28;20087;-69
2021/04/24 02:42:05;;;;;;;32.10;12.70;;;;;;;12.35;48.79;97428.25;5023391;28;20059;-69
2021/04/24 02:44:32;;;;;;;11.45;6.25;;;;;;;12.05;48.65;97376.19;5025324;28;20036;-70
2021/04/24 02:46:59;;;;;;;12.82;5.93;;;;;;;12.29;48.24;97441.66;5025359;28;20500;-72
2021/04/24 02:49:25;;;;;;;13.23;6.03;;;;;;;12.20;48.47;97436.34;5025525;28;20167;-70
2021/04/24 02:51:52;;;;;;;8.90;5.20;;;;;;;12.30;48.06;97443.25;5024882;28;20472;-68
2021/04/24 02:54:17;;;;;;;10.35;6.75;;;;;;;12.40;47.53;97442.63;5023696;28;20455;-69
2021/04/24 02:56:43;;;;;;;11.60;6.03;;;;;;;12.31;47.15;97444.88;5024899;28;20036;-69
2021/04/24 02:59:08;;;;;;;16.35;5.95;;;;;;;12.35;48.20;97442.13;5025572;28;20040;-69
2021/04/24 03:01:34;;;;;;;15.65;7.60;;;;;;;12.28;50.61;97444.81;5024585;28;20045;-68
2021/04/24 03:03:59;;;;;;;13.45;7.28;;;;;;;12.27;50.91;97449.56;5026095;28;20041;-69
2021/04/24 03:06:25;;;;;;;11.27;7.03;;;;;;;12.13;53.03;97438.22;5025053;28;20488;-68
2021/04/24 03:08:50;;;;;;;12.93;6.57;;;;;;;11.44;52.75;97346.94;5022022;28;20042;-69
2021/04/24 03:11:16;;;;;;;12.90;6.97;;;;;;;12.18;52.84;97457.34;5004726;28;20556;-69
2021/04/24 03:13:41;;;;;;;15.10;6.53;;;;;;;11.75;53.40;97405.00;5020161;28;20030;-70
2021/04/24 03:16:07;;;;;;;14.07;7.03;;;;;;;12.10;52.91;97461.16;5003241;28;20018;-70
2021/04/24 03:18:33;;;;;;;14.15;6.68;;;;;;;12.13;52.20;97465.97;5005341;28;20038;-70
2021/04/24 03:20:59;;;;;;;11.30;6.25;;;;;;;12.11;50.89;97474.69;5005089;28;20036;-68
2021/04/24 03:23:25;;;;;;;12.20;6.32;;;;;;;11.75;49.86;97416.09;5005524;28;20048;-70
2021/04/24 03:25:50;;;;;;;11.85;6.15;;;;;;;12.19;49.19;97475.59;5004668;28;20046;-71
2021/04/24 03:28:16;;;;;;;20.25;7.00;;;;;;;12.11;49.79;97451.66;5004809;28;20048;-69
2021/04/24 03:30:41;;;;;;;12.30;6.07;;;;;;;12.24;49.15;97469.75;5019259;28;20045;-69
2021/04/24 03:33:07;;;;;;;12.20;5.40;;;;;;;12.34;48.23;97466.34;5005217;28;20037;-68
2021/04/24 03:35:32;;;;;;;10.68;5.90;;;;;;;12.13;53.23;97472.34;5004473;28;20511;-70
2021/04/24 03:37:58;;;;;;;10.35;6.25;;;;;;;11.16;54.46;97396.31;5004781;28;20615;-70
2021/04/24 03:40:23;;;;;;;19.05;7.25;;;;;;;11.33;53.46;97471.56;5019477;28;20037;-69
2021/04/24 03:42:48;;;;;;;14.18;6.28;;;;;;;11.69;52.85;97473.09;5004575;28;20042;-69
2021/04/24 03:45:18;;;;;;;16.27;7.00;;;;;;;11.82;52.32;97466.22;5002730;28;20029;-68
2021/04/24 03:47:46;;;;;;;12.60;8.27;;;;;;;11.95;53.29;97475.94;5018351;28;20121;-69
2021/04/24 03:50:12;;;;;;;16.30;8.05;;;;;;;11.87;51.16;97438.16;5003846;28;20049;-69
2021/04/24 03:52:37;;;;;;;13.50;8.25;;;;;;;11.75;51.80;97477.97;5004379;28;20037;-69
2021/04/24 03:55:03;;;;;;;11.30;7.00;;;;;;;8.70;51.32;97011.75;5004344;28;20141;-68
2021/04/24 03:57:29;;;;;;;15.90;6.82;;;;;;;11.66;50.98;97484.91;5018796;28;20093;-69
2021/04/24 03:59:54;;;;;;;12.68;6.93;;;;;;;11.81;51.53;97487.59;5004449;28;20034;-70
2021/04/24 04:02:19;;;;;;;16.40;7.10;;;;;;;12.03;51.96;97488.78;5003719;28;20042;-69
2021/04/24 04:04:47;;;;;;;12.43;5.70;;;;;;;12.17;52.62;97483.53;5004232;28;20030;-69
2021/04/24 04:07:12;;;;;;;14.80;7.78;;;;;;;12.33;52.50;97486.19;5003706;28;20049;-69
2021/04/24 04:09:37;;;;;;;12.05;5.63;;;;;;;12.44;52.60;97482.38;5013668;28;20033;-68
2021/04/24 04:12:03;;;;;;;15.10;6.38;;;;;;;12.54;53.00;97492.88;5023147;28;20099;-68
2021/04/24 04:14:28;;;;;;;15.13;8.52;;;;;;;12.49;52.16;97495.97;5023889;28;20511;-67
2021/04/24 04:16:54;;;;;;;19.50;8.30;;;;;;;12.54;51.71;97492.88;5021632;28;20032;-68
2021/04/24 04:19:19;;;;;;;16.35;8.88;;;;;;;12.34;51.45;97438.56;5024308;28;20022;-66
2021/04/24 04:21:45;;;;;;;14.65;8.80;;;;;;;12.77;50.42;97468.63;5023507;28;20029;-69
2021/04/24 04:24:11;;;;;;;30.75;12.38;;;;;;;12.92;50.99;97487.13;5022120;28;20060;-68
2021/04/24 04:26:36;;;;;;;16.90;8.43;;;;;;;12.57;50.20;97442.13;5022999;28;20032;-68
2021/04/24 04:29:02;;;;;;;17.95;10.75;;;;;;;12.94;49.71;97495.09;5021737;28;20505;-69
2021/04/24 04:31:28;;;;;;;75.07;34.38;;;;;;;12.98;48.44;97474.50;5023286;28;20099;-67
2021/04/24 04:33:53;;;;;;;22.67;10.25;;;;;;;13.02;47.73;97482.94;5023608;28;20096;-68
2021/04/24 04:36:19;;;;;;;13.23;5.78;;;;;;;12.82;47.00;97459.97;5022862;28;20056;-66
2021/04/24 04:38:45;;;;;;;11.07;5.95;;;;;;;12.85;47.61;97487.00;5023353;28;20561;-68
2021/04/24 04:41:11;;;;;;;14.88;7.03;;;;;;;12.95;47.35;97500.28;5022818;28;20030;-69
2021/04/24 04:43:36;;;;;;;36.55;26.90;;;;;;;13.03;47.83;97502.03;5023746;28;20045;-68
2021/04/24 04:46:02;;;;;;;21.20;12.10;;;;;;;12.48;48.61;97394.34;5023064;28;20034;-68
2021/04/24 04:48:27;;;;;;;114.22;59.90;;;;;;;13.24;48.36;97505.13;5023297;28;20069;-69
2021/04/24 04:50:53;;;;;;;65.50;26.65;;;;;;;13.25;48.02;97522.59;5023259;28;20511;-69
2021/04/24 04:53:18;;;;;;;26.63;13.65;;;;;;;13.18;48.27;97512.16;5022076;28;20041;-69
2021/04/24 04:55:43;;;;;;;31.88;17.55;;;;;;;13.29;47.76;97507.56;5023213;28;20032;-69
2021/04/24 04:58:09;;;;;;;21.40;15.20;;;;;;;13.47;47.99;97539.22;5024231;28;20057;-68
2021/04/24 05:00:34;;;;;;;15.75;8.35;;;;;;;12.83;46.57;97397.66;5027466;28;20542;-68
2021/04/24 05:03:00;;;;;;;16.65;6.88;;;;;;;13.38;45.70;97449.66;5042455;28;20467;-68
2021/04/24 05:05:26;;;;;;;23.77;13.55;;;;;;;13.36;46.43;97440.88;5027063;28;20674;-68
2021/04/24 05:07:51;;;;;;;28.48;14.25;;;;;;;13.74;46.71;97511.34;5027845;28;20029;-68
2021/04/24 05:10:18;;;;;;;21.65;11.40;;;;;;;13.73;47.13;97504.16;5011938;28;20030;-68
2021/04/24 05:12:44;;;;;;;26.88;10.55;;;;;;;13.72;46.92;97497.00;5005712;28;20035;-69
2021/04/24 05:15:10;;;;;;;30.67;13.60;;;;;;;13.65;47.11;97506.88;5005466;28;20045;-69
2021/04/24 05:17:35;;;;;;;26.00;11.95;;;;;;;14.15;46.24;97504.63;5005802;28;20042;-68
2021/04/24 05:20:02;;;;;;;28.02;15.75;;;;;;;14.25;46.92;97520.69;5007401;28;20084;-69
2021/04/24 05:22:27;;;;;;;17.20;11.50;;;;;;;14.24;46.57;97513.50;5005269;28;20040;-68
2021/04/24 05:24:54;;;;;;;35.88;18.45;;;;;;;13.81;46.53;97425.09;5007149;28;20033;-68
2021/04/24 05:27:19;;;;;;;48.90;22.25;;;;;;;14.49;46.61;97514.56;5005678;28;20129;-70
2021/04/24 05:29:45;;;;;;;36.85;17.77;;;;;;;14.47;45.43;97511.34;5005968;28;20124;-67
2021/04/24 05:32:10;;;;;;;38.33;19.52;;;;;;;14.55;45.62;97508.25;5006367;28;20113;-68
2021/04/24 05:34:36;;;;;;;56.95;27.63;;;;;;;14.75;45.17;97511.59;5026618;28;20053;-69
2021/04/24 05:37:01;;;;;;;39.47;21.35;;;;;;;14.75;44.82;97522.75;5026331;28;20037;-68
2021/04/24 05:39:27;;;;;;;24.92;15.15;;;;;;;14.39;44.48;97431.63;5026480;28;20530;-68
2021/04/24 05:41:52;;;;;;;26.25;15.68;;;;;;;15.05;44.21;97526.97;5026006;28;20029;-67
2021/04/24 05:44:19;;;;;;;22.00;14.27;;;;;;;14.69;43.28;97457.38;5025070;28;20484;-67
2021/04/24 05:46:45;;;;;;;15.90;8.30;;;;;;;15.12;42.98;97520.66;5025948;28;20021;-68
2021/04/24 05:49:10;;;;;;;14.25;6.82;;;;;;;15.17;41.51;97517.50;5026110;28;20512;-69
2021/04/24 05:51:35;;;;;;;13.88;7.88;;;;;;;15.12;40.07;97503.91;5025956;28;20487;-69
2021/04/24 05:54:01;;;;;;;27.67;14.27;;;;;;;15.22;40.81;97458.53;5026707;28;20418;-69
2021/04/24 05:56:26;;;;;;;28.70;13.38;;;;;;;15.52;40.95;97467.50;5024349;28;20421;-69
2021/04/24 05:58:52;;;;;;;38.63;16.73;;;;;;;15.97;39.85;97517.13;5026577;28;20057;-68
2021/04/24 06:01:18;;;;;;;21.40;10.50;;;;;;;15.28;38.63;97383.59;5024330;28;20057;-70
2021/04/24 06:03:44;;;;;;;14.68;7.50;;;;;;;16.01;37.95;97483.63;5026544;28;20046;-69
2021/04/24 06:06:09;;;;;;;12.98;6.30;;;;;;;15.93;37.66;97448.47;5024029;28;20033;-69
2021/04/24 06:08:35;;;;;;;8.82;6.72;;;;;;;16.12;37.40;97460.06;5026247;28;20503;-69
2021/04/24 06:11:00;;;;;;;15.50;7.78;;;;;;;16.64;36.58;97540.47;5039513;28;20522;-67
2021/04/24 06:13:27;;;;;;;10.63;5.88;;;;;;;16.49;36.06;97510.91;5026139;28;20043;-68
2021/04/24 06:15:54;;;;;;;11.48;6.70;;;;;;;16.59;36.50;97515.72;5040474;28;20040;-69
2021/04/24 06:18:19;;;;;;;16.13;7.10;;;;;;;16.61;36.18;97507.72;5026395;28;20037;-70
2021/04/24 06:20:45;;;;;;;12.27;6.45;;;;;;;16.86;36.10;97506.94;5025476;28;20029;-68
2021/04/24 06:23:11;;;;;;;10.48;5.88;;;;;;;15.24;36.48;97531.50;5040455;28;20056;-70
2021/04/24 06:25:37;;;;;;;10.40;5.60;;;;;;;14.43;37.88;97539.19;5025409;28;20083;-70
2021/04/24 06:28:03;;;;;;;13.25;7.72;;;;;;;14.57;38.23;97460.47;5025746;28;20041;-69
2021/04/24 06:30:28;;;;;;;12.82;6.15;;;;;;;14.32;38.30;97420.44;5025167;28;21034;-68
2021/04/24 06:32:55;;;;;;;14.75;7.47;;;;;;;15.32;38.76;97524.75;5026007;28;20037;-68
2021/04/24 06:35:22;;;;;;;13.05;7.22;;;;;;;15.73;38.23;97529.00;5039864;28;20159;-65
2021/04/24 06:37:48;;;;;;;14.60;7.78;;;;;;;15.75;37.64;97498.69;5021868;28;20065;-67
2021/04/24 06:40:15;;;;;;;21.27;7.85;;;;;;;16.11;37.21;97533.94;5023280;28;20061;-67
2021/04/24 06:42:41;;;;;;;14.70;6.93;;;;;;;15.96;36.77;97515.56;5025445;28;20057;-68
2021/04/24 06:45:09;;;;;;;14.05;6.65;;;;;;;16.05;37.24;97526.34;5024876;28;20501;-67
2021/04/24 06:47:35;;;;;;;12.70;6.88;;;;;;;15.21;38.64;97507.16;5023222;28;20049;-66
2021/04/24 06:50:01;;;;;;;11.40;7.40;;;;;;;14.79;39.01;97454.69;5022572;28;20520;-67
2021/04/24 06:52:26;;;;;;;11.43;7.40;;;;;;;14.77;38.87;97529.56;5024800;28;20110;-66
2021/04/24 06:54:52;;;;;;;12.20;7.05;;;;;;;14.38;39.42;97536.78;5023766;28;20463;-67
2021/04/24 06:57:17;;;;;;;12.85;6.65;;;;;;;14.77;39.23;97537.09;5024759;28;20075;-67
2021/04/24 06:59:44;;;;;;;10.18;6.05;;;;;;;14.84;39.35;97498.13;5024224;28;20373;-65
2021/04/24 07:02:13;;;;;;;15.60;5.35;;;;;;;14.68;40.40;97545.81;5021925;28;20539;-67
2021/04/24 07:04:39;;;;;;;10.98;5.80;;;;;;;14.10;40.51;97535.63;5023413;28;20044;-70
2021/04/24 07:07:06;;;;;;;11.70;6.22;;;;;;;14.21;39.12;97436.25;5023192;28;20119;-68
2021/04/24 07:09:32;;;;;;;12.23;6.20;;;;;;;14.21;40.44;97547.69;5024235;28;20139;-68
2021/04/24 07:11:58;;;;;;;17.95;6.80;;;;;;;12.12;41.47;97220.03;5023879;28;20064;-67
2021/04/24 07:14:24;;;;;;;10.98;6.88;;;;;;;14.36;40.67;97560.63;5022359;28;20072;-65
2021/04/24 07:16:49;;;;;;;9.95;6.43;;;;;;;13.37;40.31;97431.34;5023618;28;20477;-67
2021/04/24 07:19:15;;;;;;;10.40;5.63;;;;;;;14.10;40.76;97521.69;5022367;28;20049;-66
2021/04/24 07:21:40;;;;;;;11.73;6.47;;;;;;;14.39;40.20;97582.97;5022312;28;20390;-63
2021/04/24 07:24:06;;;;;;;11.93;6.38;;;;;;;14.82;39.46;97561.88;5039692;28;20581;-65
2021/04/24 07:26:33;;;;;;;8.95;5.43;;;;;;;12.57;39.64;97258.69;5021758;28;20025;-66
2021/04/24 07:28:58;;;;;;;15.60;6.45;;;;;;;14.33;40.43;97528.75;5022172;28;20535;-64
2021/04/24 07:31:24;;;;;;;13.93;7.47;;;;;;;13.94;40.35;97487.69;5023112;28;20041;-63
2021/04/24 07:33:49;;;;;;;14.68;6.38;;;;;;;14.87;40.47;97564.31;5023760;28;20069;-64
2021/04/24 07:36:15;;;;;;;9.70;6.43;;;;;;;15.39;39.30;97558.34;5023155;28;20492;-63
2021/04/24 07:38:40;;;;;;;11.30;6.03;;;;;;;14.84;38.43;97459.09;5021425;28;20033;-65
2021/04/24 07:41:06;;;;;;;9.93;5.28;;;;;;;14.46;39.98;97559.94;5028708;28;20026;-65
2021/04/24 07:43:31;;;;;;;10.57;5.93;;;;;;;14.92;38.70;97499.78;5022959;28;20321;-66
2021/04/24 07:45:57;;;;;;;7.93;5.68;;;;;;;14.72;38.02;97473.31;5022554;28;20083;-65
2021/04/24 07:48:22;;;;;;;9.88;4.78;;;;;;;13.51;40.24;97434.28;5023519;28;20056;-65
2021/04/24 07:50:49;;;;;;;12.93;6.18;;;;;;;14.99;40.48;97555.63;5022710;28;20432;-64
2021/04/24 07:53:15;;;;;;;9.73;5.75;;;;;;;14.64;39.49;97443.78;5024282;28;20484;-65
2021/04/24 07:55:41;;;;;;;12.80;5.68;;;;;;;14.71;39.43;97427.09;5022367;28;20083;-65
2021/04/24 07:58:06;;;;;;;14.88;5.63;;;;;;;14.90;39.73;97513.31;5023065;28;20033;-66
2021/04/24 08:00:32;;;;;;;8.18;5.30;;;;;;;13.66;42.32;97427.72;5021922;28;20033;-66
2021/04/24 08:02:58;;;;;;;9.15;6.25;;;;;;;15.22;41.42;97539.47;5023466;28;20045;-66
2021/04/24 08:05:23;;;;;;;9.00;5.70;;;;;;;15.09;40.24;97513.06;5020703;28;20124;-65
2021/04/24 08:07:48;;;;;;;7.72;5.30;;;;;;;15.10;40.55;97557.31;5023153;28;20124;-67
2021/04/24 08:10:14;;;;;;;9.00;5.65;;;;;;;15.36;40.12;97550.72;5015472;28;20480;-66
2021/04/24 08:12:41;;;;;;;11.10;6.45;;;;;;;15.15;41.54;97565.34;5021559;28;20092;-66
2021/04/24 08:15:11;;;;;;;14.98;6.25;;;;;;;15.62;40.48;97522.56;5021210;28;20049;-64
2021/04/24 08:17:38;;;;;;;12.13;5.72;;;;;;;16.53;38.72;97564.06;5023780;28;20041;-67
2021/04/24 08:20:05;;;;;;;11.48;6.93;;;;;;;16.57;37.71;97512.53;5023327;28;20032;-66
2021/04/24 08:22:31;;;;;;;14.68;7.15;;;;;;;17.00;37.14;97558.13;5022159;28;20512;-67
2021/04/24 08:24:56;;;;;;;14.70;9.30;;;;;;;15.91;36.86;97454.47;5022554;28;20486;-65
2021/04/24 08:27:21;;;;;;;17.75;9.43;;;;;;;16.10;37.87;97498.00;5037739;28;20117;-64
2021/04/24 08:29:47;;;;;;;20.17;9.57;;;;;;;15.81;37.33;97407.72;5038248;28;20037;-65
2021/04/24 08:32:13;;;;;;;24.13;11.55;;;;;;;16.39;36.96;97461.31;5022942;28;20068;-67
2021/04/24 08:34:38;;;;;;;14.77;7.55;;;;;;;13.96;37.72;97017.44;5022804;28;20131;-66
2021/04/24 08:37:04;;;;;;;9.85;6.55;;;;;;;17.67;36.48;97552.47;5023125;28;20044;-64
2021/04/24 08:39:29;;;;;;;11.85;6.43;;;;;;;17.50;36.76;97514.88;5021770;28;20037;-65
2021/04/24 08:41:55;;;;;;;9.45;6.03;;;;;;;16.62;37.06;97486.16;5021327;28;20041;-67
2021/04/24 08:44:21;;;;;;;13.13;6.63;;;;;;;16.86;38.32;97548.91;5022489;28;20511;-65
2021/04/24 08:46:51;;;;;;;8.50;5.88;;;;;;;15.74;39.11;97535.41;5025060;28;20041;-64
2021/04/24 08:49:21;;;;;;;7.40;5.07;;;;;;;15.17;40.43;97539.81;5020649;28;20164;-64
2021/04/24 08:51:47;;;;;;;11.55;6.32;;;;;;;15.62;40.51;97494.66;5023344;28;20054;-64
2021/04/24 08:54:13;;;;;;;11.70;6.55;;;;;;;16.46;39.51;97545.25;5014367;28;20385;-63
2021/04/24 08:56:39;;;;;;;11.05;5.95;;;;;;;16.51;39.04;97522.50;5021310;28;20041;-65
2021/04/24 08:59:04;;;;;;;13.93;6.97;;;;;;;17.07;38.64;97534.91;5022261;28;20037;-66
2021/04/24 09:01:30;;;;;;;13.10;6.47;;;;;;;17.47;39.25;97526.06;5021707;28;20563;-64
2021/04/24 09:03:55;;;;;;;10.50;6.82;;;;;;;16.82;39.35;97434.16;5021420;28;20144;-65
2021/04/24 09:06:22;;;;;;;13.55;6.45;;;;;;;17.70;39.27;97523.63;5022223;28;20548;-66
2021/04/24 09:08:56;;;;;;;15.07;7.07;;;;;;;17.33;39.27;97464.47;5022195;28;20117;-67
2021/04/24 09:11:22;;;;;;;9.43;6.88;;;;;;;17.80;39.95;97517.16;5021124;28;20037;-66
2021/04/24 09:14:18;;;;;;;11.85;6.68;;;;;;;17.76;38.86;97500.38;5019417;28;20436;-67
2021/04/24 09:16:44;;;;;;;9.75;6.57;;;;;;;17.64;39.69;97505.66;5021000;28;20501;-67
2021/04/24 09:19:29;;;;;;;13.52;8.40;;;;;;;18.06;38.95;97485.84;5018223;28;20042;-68
2021/04/24 09:22:16;;;;;;;11.63;8.60;;;;;;;17.71;39.11;97457.97;5020889;28;20041;-64
2021/04/24 09:24:44;;;;;;;17.08;8.98;;;;;;;18.27;38.47;97477.31;5019157;28;20041;-67
2021/04/24 09:27:09;;;;;;;12.60;7.30;;;;;;;18.15;37.67;97477.75;5019991;28;20033;-68
2021/04/24 09:29:35;;;;;;;10.63;6.38;;;;;;;17.92;38.26;97452.28;5021227;28;20412;-67
2021/04/24 09:32:19;;;;;;;7.40;5.60;;;;;;;17.80;38.34;97421.88;5020127;28;20033;-67
2021/04/24 09:34:52;;;;;;;14.75;6.60;;;;;;;18.30;38.71;97467.25;5020743;28;20049;-67
2021/04/24 09:37:19;;;;;;;;;;;;;;;18.21;39.15;97462.09;5021535;28;20049;-65
2021/04/24 09:39:50;;;;;;;15.73;7.55;;;;;;;17.51;38.61;97370.81;5022018;28;20423;-67
2021/04/24 09:42:41;;;;;;;7.97;6.30;;;;;;;17.49;40.00;97462.06;5020932;28;20523;-66
2021/04/24 09:45:12;;;;;;;13.20;6.75;;;;;;;17.34;40.73;97461.25;5022046;28;20034;-64
2021/04/24 09:47:41;;;;;;;22.83;7.90;;;;;;;17.13;41.42;97454.94;5025368;28;20098;-66
2021/04/24 09:50:32;;;;;;;15.25;8.30;;;;;;;17.55;41.33;97458.44;5023807;28;20508;-67
2021/04/24 09:53:24;;;;;;;13.02;7.25;;;;;;;17.44;41.20;97454.03;5034328;28;20633;-66
2021/04/24 09:55:54;;;;;;;36.05;9.60;;;;;;;17.47;40.90;97453.25;5025383;28;20041;-65
2021/04/24 09:58:31;;;;;;;11.32;6.82;;;;;;;17.46;41.29;97451.66;5024885;28;20086;-69
2021/04/24 10:00:59;;;;;;;14.55;8.02;;;;;;;16.78;41.73;97377.44;5025100;28;20285;-67
2021/04/24 10:03:39;;;;;;;12.15;7.15;;;;;;;16.79;41.99;97446.16;5025941;28;20041;-68
2021/04/24 10:06:21;;;;;;;16.58;6.93;;;;;;;16.97;42.19;97446.16;5034058;28;20416;-66
2021/04/24 10:08:47;;;;;;;7.53;6.45;;;;;;;16.59;42.25;97443.00;5024198;28;20504;-68
2021/04/24 10:11:28;;;;;;;14.88;9.02;;;;;;;16.38;42.51;97409.41;5025802;28;20064;-70
2021/04/24 10:13:54;;;;;;;11.32;8.15;;;;;;;16.88;41.50;97392.59;5026682;28;20037;-70
2021/04/24 10:16:32;;;;;;;15.32;8.50;;;;;;;17.09;41.82;97443.72;5025528;28;20099;-72
2021/04/24 10:18:59;;;;;;;14.18;7.60;;;;;;;16.73;41.54;97357.44;5026405;28;20476;-70
2021/04/24 10:21:25;;;;;;;9.70;6.68;;;;;;;17.14;41.72;97439.72;5024207;28;20756;-69
2021/04/24 10:23:51;;;;;;;12.40;7.47;;;;;;;17.04;41.40;97429.34;5026654;28;20037;-69
2021/04/24 10:26:17;;;;;;;17.17;7.85;;;;;;;16.61;41.71;97379.03;5023907;28;20183;-68
2021/04/24 10:28:44;;;;;;;12.68;7.25;;;;;;;17.02;41.16;97442.94;5041120;28;20041;-68
2021/04/24 10:31:10;;;;;;;13.30;7.10;;;;;;;16.75;41.71;97433.38;5023547;28;20060;-68
2021/04/24 10:33:36;;;;;;;11.50;7.18;;;;;;;16.84;42.23;97431.78;5025634;28;20563;-68
2021/04/24 10:36:02;;;;;;;14.75;9.77;;;;;;;16.44;42.26;97446.13;5025229;28;20111;-68
2021/04/24 10:38:28;;;;;;;20.13;12.95;;;;;;;16.58;41.62;97396.63;5025836;28;20104;-69
2021/04/24 10:40:53;;;;;;;11.55;6.47;;;;;;;16.63;41.93;97387.84;5023582;28;20580;-69
2021/04/24 10:43:20;;;;;;;17.15;8.15;;;;;;;16.83;41.77;97423.78;5024499;28;20038;-69
2021/04/24 10:45:45;;;;;;;12.20;8.25;;;;;;;16.32;42.10;97332.72;5025031;28;20432;-69
2021/04/24 10:48:22;;;;;;;12.15;8.35;;;;;;;16.97;42.29;97420.97;5023634;28;20037;-69
2021/04/24 10:50:49;;;;;;;12.48;7.07;;;;;;;16.93;41.96;97428.56;5022861;28;20520;-70
2021/04/24 10:53:30;;;;;;;12.13;7.95;;;;;;;17.14;42.18;97428.50;5023675;28;20581;-69
2021/04/24 10:55:58;;;;;;;11.95;7.00;;;;;;;17.18;41.50;97429.31;5022851;28;20120;-70
2021/04/24 10:58:28;;;;;;;10.55;6.13;;;;;;;16.90;41.12;97429.38;5024010;28;20419;-69
2021/04/24 11:00:57;;;;;;;10.57;7.28;;;;;;;16.33;41.31;97334.31;5023205;28;20045;-70
2021/04/24 11:03:35;;;;;;;13.25;7.47;;;;;;;17.29;41.34;97427.28;5025359;28;20065;-70
2021/04/24 11:06:14;;;;;;;9.25;6.50;;;;;;;17.19;41.11;97431.72;5023443;28;20428;-69
2021/04/24 11:08:41;;;;;;;12.93;7.45;;;;;;;16.44;41.18;97357.50;5024563;28;20029;-68
2021/04/24 11:11:10;;;;;;;14.43;9.38;;;;;;;16.99;41.22;97435.34;5024025;28;20392;-70
2021/04/24 11:13:48;;;;;;;9.77;7.75;;;;;;;16.94;40.80;97441.34;5023662;28;20099;-69
2021/04/24 11:16:16;;;;;;;17.85;9.70;;;;;;;17.08;40.66;97430.13;5023693;28;20033;-69
2021/04/24 11:18:44;;;;;;;11.68;8.10;;;;;;;17.00;41.06;97436.94;5023749;28;20025;-69
2021/04/24 11:21:28;;;;;;;12.00;8.02;;;;;;;16.96;41.40;97438.97;5022871;28;20041;-69
2021/04/24 11:23:58;;;;;;;13.55;9.00;;;;;;;16.91;41.38;97442.16;5023676;28;20037;-73